Main page
METAR-TAF:

METAR-TAF

Airports :

Kish, Iran

Kish International Airport

latitude: 26-31-36N, longitude: 053-58-54E, elevation: 30 m

Current weather observation

The report was made 16 minutes ago, at 23:00 UTC
Wind 6 kt from the East
Temperature 32°C
Humidity 79%
Pressure 1000 hPa
Visibility: 6000 m

METAR: OIBK 232300Z 09006KT 6000 NSC 32/28 Q1000

Time: 03:46 (23:16 UTC)

Forecast

The report was made 5 hours and 46 minutes ago, at 17:30 UTC
Forecast valid from 23 at 18 UTC to 24 at 24 UTC
Wind 8 kt from the Northwest
Visibility: 5000 m
haze
Becoming
from 24 at 01 UTC to 24 at 03 UTC
Wind 17 kt from the East/Southeast
Temporary
from 24 at 03 UTC to 24 at 09 UTC
Visibility: 3000 m
sand
Becoming
from 24 at 10 UTC to 24 at 12 UTC
Wind 8 kt from the East/Southeast
Becoming
from 24 at 15 UTC to 24 at 17 UTC
Wind 8 kt from the Northwest
Visibility: 6000 m

TAF: OIBK 231730Z 2318/2424 32004MPS 5000 HZ NSC BECMG 2401/2403 12009MPS TEMPO 2403/2409 3000 SA BECMG 2410/2412 12004MPS BECMG 2415/2417 32004MPS 6000 NSC

Weather observations and forecasts of more than 4000 airports (METAR and TAF reports).

The available stations are represented by yellow and red dots on the map.

Hover mouse over dot to see the name of the station.

Then click to see weather observations and forecasts.

To change the map : click on the green buttons with a black cross to zoom in, on the green button with a dash to zoom out, or on the green arrows for adjacent maps.


METAR-TAF: